Time;durP1;ratioP1;P1;durP2;ratioP2;P2;SDS_P1;SDS_P2;PMS_P1;PMS_P2;Temp;Humidity;BMP_temperature;BMP_pressure;BME280_temperature;BME280_humidity;BME280_pressure;Samples;Min_cycle;Max_cycle;Signal;HPM_P1;HPM_P2
2022/10/26 00:01:17;;;;;;;23.75;13.40;;;11.70;99.90;;;;;;5013905;28;93874;-76
2022/10/26 00:03:45;;;;;;;18.80;12.35;;;11.70;99.90;;;;;;5015415;28;92442;-77
2022/10/26 00:06:14;;;;;;;23.45;13.05;;;11.70;99.90;;;;;;5014192;28;92549;-77
2022/10/26 00:08:42;;;;;;;24.63;13.73;;;11.70;99.90;;;;;;5013938;28;92599;-77
2022/10/26 00:11:10;;;;;;;21.23;12.98;;;11.70;99.90;;;;;;5015473;28;93143;-77
2022/10/26 00:13:39;;;;;;;22.15;12.85;;;11.70;99.90;;;;;;5014175;28;95977;-76
2022/10/26 00:16:12;;;;;;;17.63;13.75;;;11.70;99.90;;;;;;5013569;28;107837;-77
2022/10/26 00:18:39;;;;;;;17.07;12.23;;;11.70;99.90;;;;;;5015668;28;92474;-77
2022/10/26 00:21:07;;;;;;;22.92;14.07;;;11.70;99.90;;;;;;5013592;28;106009;-76
2022/10/26 00:23:34;;;;;;;17.83;12.20;;;11.70;99.90;;;;;;5013761;28;98224;-76
2022/10/26 00:26:01;;;;;;;18.85;12.93;;;11.70;99.90;;;;;;5014907;28;92376;-77
2022/10/26 00:28:28;;;;;;;18.85;12.98;;;11.70;99.90;;;;;;5015086;28;92498;-77
2022/10/26 00:31:03;;;;;;;17.90;12.88;;;11.70;99.90;;;;;;5030462;28;93208;-77
2022/10/26 00:33:31;;;;;;;18.35;12.52;;;11.80;99.90;;;;;;5015331;28;93221;-77
2022/10/26 00:35:58;;;;;;;20.55;12.43;;;11.70;99.90;;;;;;5015058;28;92888;-76
2022/10/26 00:38:25;;;;;;;22.80;13.13;;;11.70;99.90;;;;;;5014262;28;91787;-76
2022/10/26 00:40:52;;;;;;;18.20;11.68;;;11.70;99.90;;;;;;5014814;28;93239;-76
2022/10/26 00:43:21;;;;;;;18.50;12.00;;;11.70;99.90;;;;;;5014959;28;93077;-77
2022/10/26 00:45:51;;;;;;;21.17;13.35;;;11.80;99.90;;;;;;5012105;28;94822;-77
2022/10/26 00:48:26;;;;;;;23.58;13.27;;;11.80;99.90;;;;;;5013737;28;92553;-77
2022/10/26 00:50:55;;;;;;;18.85;12.98;;;11.80;99.90;;;;;;5014757;28;93147;-77
2022/10/26 00:53:22;;;;;;;18.98;13.23;;;11.70;99.90;;;;;;5014250;28;107385;-77
2022/10/26 00:55:51;;;;;;;19.20;13.80;;;11.70;99.90;;;;;;5030351;28;92961;-77
2022/10/26 00:58:20;;;;;;;19.95;12.60;;;11.70;99.90;;;;;;5013543;28;92572;-77
2022/10/26 01:00:47;;;;;;;18.95;13.13;;;11.70;99.90;;;;;;4996624;28;97899;-76
2022/10/26 01:03:15;;;;;;;22.48;14.30;;;11.70;99.90;;;;;;5015029;28;92493;-76
2022/10/26 01:05:45;;;;;;;19.02;13.60;;;11.60;99.90;;;;;;5013321;28;92852;-77
2022/10/26 01:08:13;;;;;;;19.92;13.23;;;11.60;99.90;;;;;;5014869;28;92424;-76
2022/10/26 01:10:41;;;;;;;20.92;13.18;;;11.60;99.90;;;;;;5012866;28;109216;-76
2022/10/26 01:13:09;;;;;;;24.52;13.52;;;11.60;99.90;;;;;;5014333;28;95566;-76
2022/10/26 01:15:42;;;;;;;26.23;14.27;;;11.50;99.90;;;;;;5014673;28;92452;-76
2022/10/26 01:18:33;;;;;;;22.38;14.18;;;11.50;99.90;;;;;;5017896;28;92443;-77
2022/10/26 01:21:13;;;;;;;20.73;14.02;;;11.50;99.90;;;;;;5017941;28;92370;-76
2022/10/26 01:24:08;;;;;;;21.95;13.27;;;11.40;99.90;;;;;;5016562;28;95714;-76
2022/10/26 01:26:41;;;;;;;19.23;13.55;;;11.40;99.90;;;;;;5016612;28;92635;-76
2022/10/26 01:29:58;;;;;;;21.10;14.23;;;11.40;99.90;;;;;;5018020;28;94390;-76
2022/10/26 01:32:33;;;;;;;22.35;13.57;;;11.40;99.90;;;;;;5014229;28;95900;-76
2022/10/26 01:35:09;;;;;;;24.35;14.75;;;11.30;99.90;;;;;;5017569;28;93277;-76
2022/10/26 01:37:45;;;;;;;22.10;14.45;;;11.20;99.90;;;;;;5017008;28;94813;-76
2022/10/26 01:40:35;;;;;;;23.40;14.80;;;11.20;99.90;;;;;;5016275;28;92592;-76
2022/10/26 01:43:06;;;;;;;24.80;14.95;;;11.20;99.90;;;;;;5016232;28;93275;-77
2022/10/26 01:45:38;;;;;;;24.60;16.00;;;11.10;99.90;;;;;;5017887;28;93138;-76
2022/10/26 01:48:08;;;;;;;24.58;15.35;;;11.10;99.90;;;;;;5016330;28;93341;-77
2022/10/26 01:50:36;;;;;;;22.27;14.70;;;11.10;99.90;;;;;;5017710;28;92690;-76
2022/10/26 01:53:03;;;;;;;21.90;14.90;;;11.10;99.90;;;;;;5017183;28;95808;-76
2022/10/26 01:55:42;;;;;;;24.90;14.68;;;11.00;99.90;;;;;;5017834;28;93134;-76
2022/10/26 01:58:21;;;;;;;25.05;15.13;;;11.00;99.90;;;;;;5016125;28;92474;-77
2022/10/26 02:01:26;;;;;;;24.40;14.75;;;11.00;99.90;;;;;;4999759;28;92456;-76
2022/10/26 02:04:15;;;;;;;25.15;15.15;;;11.00;99.90;;;;;;5006902;28;95413;-76
2022/10/26 02:07:08;;;;;;;27.73;16.20;;;10.90;99.90;;;;;;5017265;28;95356;-76
2022/10/26 02:09:54;;;;;;;22.27;15.70;;;10.80;99.90;;;;;;5016107;28;92470;-76
2022/10/26 02:12:52;;;;;;;26.10;14.52;;;10.80;99.90;;;;;;5015918;28;92501;-76
2022/10/26 02:15:23;;;;;;;24.67;14.98;;;10.80;99.90;;;;;;5017374;28;93353;-76
2022/10/26 02:18:05;;;;;;;28.75;16.02;;;10.70;99.90;;;;;;5015842;28;95805;-76
2022/10/26 02:20:42;;;;;;;26.55;15.50;;;10.80;99.90;;;;;;5016184;28;92383;-76
2022/10/26 02:23:11;;;;;;;26.13;14.55;;;10.70;99.90;;;;;;5016080;28;91756;-76
2022/10/26 02:25:49;;;;;;;22.77;14.93;;;10.70;99.90;;;;;;5017130;28;92508;-76
2022/10/26 02:28:31;;;;;;;29.65;15.73;;;10.80;99.90;;;;;;5013784;28;95547;-76
2022/10/26 02:31:01;;;;;;;24.02;16.23;;;10.70;99.90;;;;;;5015858;28;95203;-76
2022/10/26 02:33:32;;;;;;;29.27;16.75;;;10.70;99.90;;;;;;5015744;28;92624;-76
2022/10/26 02:36:01;;;;;;;25.58;15.60;;;10.70;99.90;;;;;;5016969;28;93343;-76
2022/10/26 02:38:31;;;;;;;26.05;15.77;;;10.70;99.90;;;;;;5016708;28;93081;-76
2022/10/26 02:41:00;;;;;;;28.77;16.17;;;10.70;99.90;;;;;;5015333;28;92502;-76
2022/10/26 02:43:29;;;;;;;27.13;16.40;;;10.70;99.90;;;;;;5015466;28;97538;-76
2022/10/26 02:46:04;;;;;;;25.63;16.52;;;10.70;99.90;;;;;;5016855;28;93065;-76
2022/10/26 02:48:31;;;;;;;;;;;10.70;99.90;;;;;;5017754;28;92853;-76
2022/10/26 02:51:27;;;;;;;27.55;16.25;;;10.60;99.90;;;;;;5017196;28;92534;-77
2022/10/26 02:54:06;;;;;;;29.13;17.88;;;10.60;99.90;;;;;;5016915;28;92374;-76
2022/10/26 02:56:49;;;;;;;29.30;16.50;;;10.70;99.90;;;;;;4997268;28;98125;-76
2022/10/26 02:59:20;;;;;;;31.17;18.55;;;10.70;99.90;;;;;;5016535;28;95642;-76
2022/10/26 03:01:49;;;;;;;25.92;16.80;;;10.60;99.90;;;;;;5015554;28;92431;-76
2022/10/26 03:04:16;;;;;;;31.92;19.90;;;10.60;99.90;;;;;;5031174;28;99842;-76
2022/10/26 03:06:52;;;;;;;38.55;20.08;;;10.70;99.90;;;;;;5015071;28;95754;-76
2022/10/26 03:09:18;;;;;;;34.95;18.85;;;10.70;99.90;;;;;;5016344;28;92959;-76
2022/10/26 03:11:46;;;;;;;40.13;21.30;;;10.70;99.90;;;;;;5015260;28;92576;-76
2022/10/26 03:14:13;;;;;;;32.42;20.20;;;10.70;99.90;;;;;;5032113;28;91732;-77
2022/10/26 03:16:40;;;;;;;31.00;18.27;;;10.70;99.90;;;;;;5014950;28;92999;-77
2022/10/26 03:19:07;;;;;;;30.70;19.23;;;10.70;99.90;;;;;;5016088;28;93097;-76
2022/10/26 03:21:34;;;;;;;31.02;19.40;;;10.70;99.90;;;;;;5013251;28;105180;-76
2022/10/26 03:24:01;;;;;;;32.83;19.08;;;10.70;99.90;;;;;;5016394;28;92540;-76
2022/10/26 03:26:28;;;;;;;30.70;19.00;;;10.70;99.90;;;;;;5015160;28;93236;-76
2022/10/26 03:28:55;;;;;;;33.13;19.65;;;10.70;99.90;;;;;;5015756;28;92976;-76
2022/10/26 03:31:22;;;;;;;33.85;19.95;;;10.70;99.90;;;;;;5031367;28;92963;-76
2022/10/26 03:33:49;;;;;;;33.65;19.33;;;10.70;99.90;;;;;;5014889;28;92474;-76
2022/10/26 03:36:16;;;;;;;33.42;21.50;;;10.70;99.90;;;;;;5014389;28;95945;-76
2022/10/26 03:38:43;;;;;;;33.00;19.60;;;10.80;99.90;;;;;;5014529;28;94819;-76
2022/10/26 03:41:10;;;;;;;29.90;19.35;;;10.80;99.90;;;;;;5016061;28;93001;-77
2022/10/26 03:43:36;;;;;;;35.28;20.65;;;10.80;99.90;;;;;;5015708;28;98913;-76
2022/10/26 03:46:03;;;;;;;33.83;19.17;;;10.80;99.90;;;;;;5014574;28;95643;-77
2022/10/26 03:48:30;;;;;;;35.45;20.30;;;10.80;99.90;;;;;;5015608;28;95384;-76
2022/10/26 03:50:58;;;;;;;34.55;21.38;;;10.90;99.90;;;;;;5014505;28;92559;-76
2022/10/26 03:53:25;;;;;;;32.08;20.65;;;10.90;99.90;;;;;;5015704;28;92442;-77
2022/10/26 03:55:52;;;;;;;39.03;20.80;;;10.90;99.90;;;;;;5014365;28;93111;-76
2022/10/26 03:58:19;;;;;;;35.10;21.35;;;10.90;99.90;;;;;;5014108;28;95607;-76
2022/10/26 04:00:47;;;;;;;34.72;19.20;;;10.80;99.90;;;;;;5013336;28;111284;-76
2022/10/26 04:03:13;;;;;;;37.00;19.83;;;10.90;99.90;;;;;;4997916;28;91727;-77
2022/10/26 04:05:40;;;;;;;32.70;19.83;;;10.80;99.90;;;;;;4997520;28;95904;-76
2022/10/26 04:08:07;;;;;;;34.28;20.17;;;10.80;99.90;;;;;;5014299;28;92477;-76
2022/10/26 04:10:36;;;;;;;34.83;20.40;;;10.80;99.90;;;;;;5013137;28;95211;-76
2022/10/26 04:13:03;;;;;;;36.40;20.65;;;10.80;99.90;;;;;;5014235;28;92505;-77
2022/10/26 04:15:30;;;;;;;36.78;20.75;;;10.80;99.90;;;;;;5013920;28;95733;-76
2022/10/26 04:17:59;;;;;;;37.72;21.00;;;10.80;99.90;;;;;;5014044;28;95726;-76
2022/10/26 04:20:28;;;;;;;35.97;19.58;;;10.80;99.90;;;;;;5013976;28;92527;-76
2022/10/26 04:23:00;;;;;;;29.85;18.35;;;10.80;99.90;;;;;;5015496;28;92420;-77
2022/10/26 04:25:28;;;;;;;27.67;18.50;;;10.80;99.90;;;;;;5014992;28;92463;-76
2022/10/26 04:27:57;;;;;;;31.23;19.65;;;10.80;99.90;;;;;;5013675;28;95571;-76
2022/10/26 04:30:24;;;;;;;29.65;18.77;;;10.80;99.90;;;;;;5015086;28;92352;-76
2022/10/26 04:32:51;;;;;;;31.80;18.60;;;10.80;99.90;;;;;;5013900;28;92457;-76
2022/10/26 04:35:18;;;;;;;29.15;18.45;;;10.90;99.90;;;;;;5013698;28;95921;-76
2022/10/26 04:37:45;;;;;;;26.05;16.50;;;10.90;99.90;;;;;;5014894;28;95308;-76
2022/10/26 04:40:12;;;;;;;24.83;16.70;;;10.90;99.90;;;;;;5014027;28;92390;-77
2022/10/26 04:42:46;;;;;;;26.48;16.65;;;10.90;99.90;;;;;;5015138;28;93079;-76
2022/10/26 04:45:14;;;;;;;24.42;16.27;;;10.90;99.90;;;;;;5013660;28;95813;-77
2022/10/26 04:47:42;;;;;;;28.42;16.75;;;10.90;99.90;;;;;;5014845;28;93112;-76
2022/10/26 04:50:10;;;;;;;28.30;16.90;;;10.90;99.90;;;;;;5014949;28;93353;-76
2022/10/26 04:52:38;;;;;;;28.02;16.90;;;10.90;99.90;;;;;;5030014;28;91825;-76
2022/10/26 04:55:05;;;;;;;36.75;16.98;;;10.90;99.90;;;;;;5013665;28;92431;-76
2022/10/26 04:57:34;;;;;;;26.23;15.38;;;10.90;99.90;;;;;;5012996;28;105779;-77
2022/10/26 05:00:02;;;;;;;71.88;47.40;;;11.00;99.90;;;;;;5013717;28;94726;-76
2022/10/26 05:02:29;;;;;;;325.48;203.00;;;11.00;99.90;;;;;;5013471;28;92503;-76
2022/10/26 05:04:56;;;;;;;83.47;55.53;;;11.00;99.90;;;;;;5012905;28;93275;-77
2022/10/26 05:07:23;;;;;;;34.50;24.55;;;11.00;99.90;;;;;;5012811;28;94128;-76
2022/10/26 05:09:50;;;;;;;34.55;21.20;;;11.00;99.90;;;;;;4996829;28;92442;-77
2022/10/26 05:12:17;;;;;;;25.95;17.50;;;11.10;99.90;;;;;;5014724;28;92559;-76
2022/10/26 05:14:44;;;;;;;26.17;18.40;;;11.10;99.90;;;;;;5014699;28;93283;-77
2022/10/26 05:17:10;;;;;;;34.97;31.55;;;11.20;99.90;;;;;;5013124;28;107007;-77
2022/10/26 05:19:37;;;;;;;25.50;20.17;;;11.20;99.90;;;;;;5029984;28;92554;-76
2022/10/26 05:22:04;;;;;;;23.77;15.32;;;11.30;99.90;;;;;;5013401;28;92570;-77
2022/10/26 05:24:31;;;;;;;25.98;15.05;;;11.40;99.90;;;;;;5012822;28;96161;-77
2022/10/26 05:26:58;;;;;;;23.48;15.15;;;11.40;99.90;;;;;;5013218;28;95450;-76
2022/10/26 05:29:25;;;;;;;23.98;15.90;;;11.40;99.90;;;;;;5029600;28;92528;-77
2022/10/26 05:31:52;;;;;;;19.85;13.82;;;11.40;99.90;;;;;;5013436;28;92533;-77
2022/10/26 05:34:19;;;;;;;24.98;15.70;;;11.50;99.90;;;;;;5029874;28;93157;-77
2022/10/26 05:36:46;;;;;;;92.57;62.83;;;11.50;99.90;;;;;;5029614;28;92888;-76
2022/10/26 05:39:13;;;;;;;42.90;39.15;;;11.60;99.90;;;;;;5013174;28;92477;-76
2022/10/26 05:41:40;;;;;;;33.85;30.40;;;11.60;99.90;;;;;;5014698;28;91638;-77
2022/10/26 05:44:06;;;;;;;29.75;23.98;;;11.60;99.90;;;;;;5029569;28;93331;-76
2022/10/26 05:46:33;;;;;;;20.33;13.93;;;11.60;99.90;;;;;;5029442;28;93289;-76
2022/10/26 05:49:00;;;;;;;21.23;14.60;;;11.60;99.90;;;;;;5010972;28;104181;-76
2022/10/26 05:51:27;;;;;;;19.92;14.50;;;11.70;99.90;;;;;;5012470;28;92566;-76
2022/10/26 05:53:54;;;;;;;22.70;18.17;;;11.70;99.90;;;;;;5014122;28;92478;-77
2022/10/26 05:56:33;;;;;;;25.42;18.52;;;11.70;99.90;;;;;;5012690;28;94163;-77
2022/10/26 05:59:00;;;;;;;23.30;16.13;;;11.80;99.90;;;;;;5014221;28;92519;-76
2022/10/26 06:01:59;;;;;;;20.85;14.35;;;11.70;99.90;;;;;;5012528;28;92514;-76
2022/10/26 06:04:32;;;;;;;17.25;11.70;;;11.70;99.90;;;;;;5007101;28;95834;-77
2022/10/26 06:06:59;;;;;;;20.05;12.90;;;11.70;99.90;;;;;;5017730;28;93085;-76
2022/10/26 06:09:27;;;;;;;17.30;12.38;;;11.70;99.90;;;;;;5017228;28;92483;-76
2022/10/26 06:11:54;;;;;;;17.60;12.35;;;11.70;99.90;;;;;;5015960;28;92518;-76
2022/10/26 06:14:21;;;;;;;19.73;13.02;;;11.70;99.90;;;;;;5016061;28;95701;-76
2022/10/26 06:17:11;;;;;;;17.65;12.00;;;11.70;99.90;;;;;;5016871;28;95382;-77
2022/10/26 06:20:00;;;;;;;14.93;11.32;;;11.80;99.90;;;;;;5014070;28;92964;-76
2022/10/26 06:22:46;;;;;;;19.08;11.30;;;11.80;99.90;;;;;;5017050;28;92404;-76
2022/10/26 06:25:23;;;;;;;15.05;10.70;;;11.80;99.90;;;;;;5017169;28;93328;-76
2022/10/26 06:27:59;;;;;;;19.65;15.60;;;11.80;99.90;;;;;;5016734;28;93025;-77
2022/10/26 06:30:26;;;;;;;18.52;14.25;;;11.80;99.90;;;;;;5017247;28;92440;-76
2022/10/26 06:32:55;;;;;;;18.25;14.50;;;11.80;99.90;;;;;;5017408;28;91721;-76
2022/10/26 06:35:44;;;;;;;18.23;11.48;;;11.80;99.90;;;;;;5015882;28;93346;-76
2022/10/26 06:38:15;;;;;;;19.38;15.80;;;11.90;99.90;;;;;;5015588;28;95633;-77
2022/10/26 06:40:45;;;;;;;19.27;14.57;;;11.90;99.90;;;;;;5015889;28;95130;-76
2022/10/26 06:43:22;;;;;;;17.05;11.32;;;12.00;99.90;;;;;;4998661;28;92516;-76
2022/10/26 06:46:03;;;;;;;16.38;12.15;;;12.10;99.90;;;;;;5015047;28;94433;-76
2022/10/26 06:48:43;;;;;;;17.15;13.32;;;12.20;99.90;;;;;;5016667;28;93195;-76
2022/10/26 06:51:14;;;;;;;15.82;9.75;;;12.20;99.90;;;;;;5016976;28;92434;-76
2022/10/26 06:54:07;;;;;;;14.95;9.85;;;12.30;99.90;;;;;;5017069;28;92574;-76
2022/10/26 06:56:35;;;;;;;16.25;9.40;;;12.40;99.90;;;;;;5016622;28;93292;-76
2022/10/26 06:59:28;;;;;;;13.77;8.43;;;12.40;99.90;;;;;;5017392;28;92955;-76
2022/10/26 07:01:55;;;;;;;10.60;9.50;;;12.50;99.90;;;;;;5032628;28;92474;-76
2022/10/26 07:04:22;;;;;;;10.52;9.52;;;12.50;99.90;;;;;;5015808;28;93079;-76
2022/10/26 07:06:49;;;;;;;13.35;9.85;;;12.50;99.90;;;;;;5015504;28;95647;-76
2022/10/26 07:09:16;;;;;;;13.07;8.55;;;12.50;99.90;;;;;;5015460;28;97980;-76
2022/10/26 07:11:43;;;;;;;9.65;7.45;;;12.60;99.90;;;;;;5015633;28;93423;-76
2022/10/26 07:14:10;;;;;;;12.55;7.63;;;12.60;99.90;;;;;;5015209;28;92450;-76
2022/10/26 07:16:37;;;;;;;11.20;6.95;;;12.70;99.90;;;;;;5015553;28;93419;-76
2022/10/26 07:19:04;;;;;;;7.93;6.28;;;12.70;99.90;;;;;;5015420;28;96030;-76
2022/10/26 07:21:31;;;;;;;10.80;6.63;;;12.80;99.90;;;;;;5032516;28;92566;-76
2022/10/26 07:23:58;;;;;;;9.85;7.25;;;12.70;99.90;;;;;;5017369;28;91682;-76
2022/10/26 07:26:26;;;;;;;10.23;8.35;;;12.80;99.90;;;;;;5015437;28;93137;-76
2022/10/26 07:28:53;;;;;;;14.10;8.32;;;12.90;99.90;;;;;;5031013;28;92500;-76
2022/10/26 07:31:22;;;;;;;16.17;9.35;;;12.90;99.90;;;;;;5014316;28;94820;-76
2022/10/26 07:33:49;;;;;;;23.92;21.77;;;12.90;99.90;;;;;;5016508;28;92405;-76
2022/10/26 07:36:15;;;;;;;12.38;10.75;;;12.90;99.90;;;;;;5031572;28;93024;-77
2022/10/26 07:38:42;;;;;;;10.10;8.00;;;12.90;99.90;;;;;;5015715;28;93055;-76
2022/10/26 07:41:09;;;;;;;11.43;8.70;;;13.00;99.90;;;;;;5016651;28;92510;-76
2022/10/26 07:43:36;;;;;;;11.95;8.40;;;13.00;99.90;;;;;;5014866;28;92398;-76
2022/10/26 07:46:03;;;;;;;12.30;10.05;;;13.00;99.90;;;;;;5016291;28;93267;-76
2022/10/26 07:48:30;;;;;;;11.57;7.80;;;13.00;99.90;;;;;;5016283;28;93054;-76
2022/10/26 07:51:00;;;;;;;15.27;12.20;;;13.00;99.90;;;;;;5014781;28;92517;-76
2022/10/26 07:53:29;;;;;;;8.07;6.05;;;13.10;99.90;;;;;;5014379;28;92583;-76
2022/10/26 07:55:56;;;;;;;11.20;7.80;;;13.10;99.90;;;;;;5014673;28;94771;-76
2022/10/26 07:58:25;;;;;;;10.85;7.97;;;13.30;99.90;;;;;;5015911;28;95338;-76
2022/10/26 08:00:52;;;;;;;17.48;8.68;;;13.50;99.90;;;;;;5031295;28;92438;-76
2022/10/26 08:03:20;;;;;;;6.68;6.05;;;13.60;99.90;;;;;;5016189;28;92412;-77
2022/10/26 08:05:50;;;;;;;8.02;5.47;;;13.80;99.90;;;;;;5015742;28;92928;-76
2022/10/26 08:08:17;;;;;;;9.18;6.07;;;13.90;99.90;;;;;;5015969;28;92848;-76
2022/10/26 08:10:45;;;;;;;6.40;4.80;;;14.00;99.90;;;;;;5016011;28;92525;-76
2022/10/26 08:13:13;;;;;;;7.78;5.05;;;14.10;99.90;;;;;;5016023;28;100954;-77
2022/10/26 08:15:40;;;;;;;7.57;4.80;;;14.10;99.90;;;;;;5015802;28;93272;-77
2022/10/26 08:18:07;;;;;;;6.72;5.50;;;14.20;99.90;;;;;;5016085;28;93047;-77
2022/10/26 08:20:34;;;;;;;6.80;5.10;;;14.40;99.90;;;;;;5030380;28;94927;-76
2022/10/26 08:23:04;;;;;;;8.20;5.50;;;14.50;99.90;;;;;;4997713;28;92510;-77
2022/10/26 08:25:32;;;;;;;8.07;5.07;;;14.60;99.90;;;;;;5014546;28;93810;-76
2022/10/26 08:28:03;;;;;;;6.53;4.85;;;14.70;99.90;;;;;;5015407;28;92963;-76
2022/10/26 08:30:31;;;;;;;8.95;4.45;;;14.70;99.90;;;;;;5016232;28;92480;-76
2022/10/26 08:33:04;;;;;;;12.75;4.82;;;14.80;99.90;;;;;;5014383;28;92480;-76
2022/10/26 08:35:32;;;;;;;5.63;5.07;;;14.80;99.90;;;;;;5014294;28;95672;-76
2022/10/26 08:37:59;;;;;;;7.10;4.57;;;14.80;99.90;;;;;;5014348;28;95494;-76
2022/10/26 08:40:30;;;;;;;6.10;4.60;;;14.80;99.90;;;;;;5015599;28;94772;-76
2022/10/26 08:43:23;;;;;;;8.05;4.43;;;14.80;99.90;;;;;;5015764;28;92363;-76
2022/10/26 08:46:10;;;;;;;6.33;4.33;;;14.80;99.90;;;;;;5013501;28;95193;-76
2022/10/26 08:49:01;;;;;;;8.27;4.63;;;14.90;99.90;;;;;;5014309;28;95452;-76
2022/10/26 08:51:36;;;;;;;7.53;4.97;;;15.00;99.90;;;;;;5015904;28;92421;-76
2022/10/26 08:54:18;;;;;;;7.03;4.43;;;14.90;99.90;;;;;;5015640;28;92416;-77
2022/10/26 08:56:46;;;;;;;14.38;4.80;;;15.00;99.90;;;;;;5030703;28;93237;-76
2022/10/26 08:59:41;;;;;;;5.45;4.95;;;14.90;99.90;;;;;;5015318;28;92534;-77
2022/10/26 09:02:17;;;;;;;7.10;4.32;;;15.00;99.90;;;;;;5031004;28;92426;-76
2022/10/26 09:04:45;;;;;;;38.10;21.35;;;15.00;99.90;;;;;;5014557;28;92019;-77
2022/10/26 09:07:45;;;;;;;409.27;192.77;;;15.00;99.90;;;;;;5029917;28;93172;-76
2022/10/26 09:10:40;;;;;;;17.55;15.85;;;15.00;99.90;;;;;;5013041;28;93091;-76
2022/10/26 09:14:03;;;;;;;7.80;7.00;;;15.10;99.90;;;;;;5004683;28;95563;-76
2022/10/26 09:16:54;;;;;;;8.02;5.10;;;15.20;99.90;;;;;;5005951;28;92444;-76
2022/10/26 09:19:47;;;;;;;8.55;6.05;;;15.20;99.90;;;;;;5015088;28;93252;-76
2022/10/26 09:22:25;;;;;;;9.38;8.40;;;15.30;99.90;;;;;;5013662;28;95868;-76
2022/10/26 09:24:54;;;;;;;7.43;5.22;;;15.40;99.90;;;;;;5015097;28;92359;-76
2022/10/26 09:27:28;;;;;;;12.40;5.50;;;15.40;99.90;;;;;;5013388;28;92646;-76
2022/10/26 09:29:59;;;;;;;5.65;4.70;;;15.60;99.90;;;;;;5014721;28;93179;-76
2022/10/26 09:32:37;;;;;;;6.05;4.65;;;15.70;99.90;;;;;;5030726;28;95856;-76
2022/10/26 09:35:12;;;;;;;12.52;5.82;;;15.80;99.90;;;;;;5015218;28;92882;-76
2022/10/26 09:37:53;;;;;;;5.28;4.10;;;15.90;99.90;;;;;;5016704;28;92461;-76
2022/10/26 09:40:30;;;;;;;7.55;4.70;;;16.00;99.90;;;;;;5015542;28;99297;-76
2022/10/26 09:43:05;;;;;;;6.32;4.50;;;16.10;99.90;;;;;;5016508;28;97897;-76
2022/10/26 09:45:37;;;;;;;7.75;4.60;;;16.20;99.90;;;;;;5018666;28;92526;-76
2022/10/26 09:48:24;;;;;;;7.57;4.63;;;16.30;99.90;;;;;;5018357;28;92402;-76
2022/10/26 09:50:51;;;;;;;6.13;4.43;;;16.60;99.90;;;;;;5016815;28;93423;-76
2022/10/26 09:53:18;;;;;;;8.15;4.35;;;16.50;99.90;;;;;;5033523;28;92982;-76
2022/10/26 09:55:48;;;;;;;8.65;4.78;;;16.70;99.90;;;;;;5016894;28;92416;-76
2022/10/26 09:58:22;;;;;;;4.90;3.80;;;16.90;99.90;;;;;;5016807;28;91789;-76
2022/10/26 10:00:50;;;;;;;4.95;4.00;;;17.00;99.90;;;;;;5018146;28;93331;-76
2022/10/26 10:03:20;;;;;;;5.95;4.13;;;17.00;99.90;;;;;;5016580;28;95589;-76
2022/10/26 10:05:47;;;;;;;8.35;7.20;;;17.10;99.90;;;;;;5016879;28;94922;-76
2022/10/26 10:08:24;;;;;;;21.38;12.75;;;17.20;99.90;;;;;;5016721;28;92512;-76
2022/10/26 10:10:58;;;;;;;9.00;4.63;;;17.30;99.90;;;;;;5015813;28;95757;-76
2022/10/26 10:13:29;;;;;;;5.43;3.90;;;17.50;99.90;;;;;;5000071;28;95681;-76
2022/10/26 10:16:05;;;;;;;8.23;4.82;;;17.50;99.90;;;;;;5016418;28;92891;-76
2022/10/26 10:18:34;;;;;;;4.20;3.20;;;17.60;99.90;;;;;;5000213;28;93065;-76
2022/10/26 10:21:01;;;;;;;4.45;3.70;;;17.70;99.90;;;;;;5016371;28;93371;-76
2022/10/26 10:23:30;;;;;;;7.57;3.50;;;17.80;99.90;;;;;;5033652;28;92204;-76
2022/10/26 10:26:03;;;;;;;4.70;2.78;;;17.90;99.90;;;;;;5033103;28;92537;-76
2022/10/26 10:28:30;;;;;;;10.90;3.43;;;18.10;99.90;;;;;;5016026;28;92595;-76
2022/10/26 10:31:00;;;;;;;6.03;3.40;;;18.20;99.90;;;;;;5016136;28;95644;-76
2022/10/26 10:33:48;;;;;;;5.95;4.25;;;18.30;99.90;;;;;;5017570;28;95349;-76
2022/10/26 10:36:20;;;;;;;5.18;2.92;;;18.50;99.90;;;;;;5016498;28;92395;-76
2022/10/26 10:38:49;;;;;;;7.65;3.28;;;18.70;99.90;;;;;;5016379;28;92533;-76
2022/10/26 10:41:29;;;;;;;6.97;3.08;;;18.80;99.90;;;;;;5017031;28;93356;-76
2022/10/26 10:44:14;;;;;;;4.63;3.10;;;19.00;99.90;;;;;;5016040;28;95499;-76
2022/10/26 10:46:41;;;;;;;4.70;2.80;;;19.10;99.90;;;;;;5016111;28;92477;-76
2022/10/26 10:49:24;;;;;;;6.07;2.90;;;19.10;99.90;;;;;;5016430;28;91667;-76
2022/10/26 10:51:52;;;;;;;5.00;3.10;;;19.20;99.90;;;;;;5017556;28;93310;-76
2022/10/26 10:54:30;;;;;;;7.28;3.05;;;19.20;99.90;;;;;;5017027;28;92978;-76
2022/10/26 10:57:19;;;;;;;4.55;3.40;;;19.30;99.90;;;;;;5016491;28;94816;-76
2022/10/26 10:59:49;;;;;;;3.72;2.80;;;19.40;99.90;;;;;;5016156;28;92453;-76
2022/10/26 11:02:53;;;;;;;5.47;3.10;;;19.40;99.90;;;;;;5016938;28;93285;-76
2022/10/26 11:05:20;;;;;;;4.00;2.92;;;19.50;99.90;;;;;;4998888;28;95554;-76
2022/10/26 11:08:14;;;;;;;3.45;2.78;;;19.50;99.90;;;;;;5017028;28;92438;-76
2022/10/26 11:10:49;;;;;;;3.88;2.53;;;19.70;99.90;;;;;;5017202;28;92354;-76
2022/10/26 11:13:26;;;;;;;4.85;2.53;;;19.80;99.90;;;;;;5016837;28;93161;-76
2022/10/26 11:15:59;;;;;;;4.05;3.05;;;19.90;99.90;;;;;;5032833;28;92930;-76
2022/10/26 11:18:39;;;;;;;4.15;2.13;;;20.00;99.90;;;;;;5017303;28;92433;-76
2022/10/26 11:21:14;;;;;;;5.53;2.65;;;20.00;99.90;;;;;;5015968;28;92907;-76
2022/10/26 11:24:09;;;;;;;7.00;3.13;;;20.00;99.90;;;;;;5015756;28;95521;-76
2022/10/26 11:26:45;;;;;;;3.55;2.92;;;20.10;99.90;;;;;;5015020;28;98226;-76
2022/10/26 11:29:22;;;;;;;7.03;2.85;;;20.20;99.90;;;;;;5016613;28;92788;-76
2022/10/26 11:32:24;;;;;;;3.75;2.38;;;20.20;99.90;;;;;;5016987;28;92955;-76
2022/10/26 11:35:07;;;;;;;5.45;3.25;;;20.20;99.90;;;;;;5016664;28;93137;-76
2022/10/26 11:37:56;;;;;;;4.30;2.70;;;20.20;99.90;;;;;;5016760;28;92766;-76
2022/10/26 11:40:32;;;;;;;3.17;2.88;;;20.20;99.90;;;;;;5016717;28;92458;-76
2022/10/26 11:43:13;;;;;;;4.75;2.50;;;20.10;99.90;;;;;;5017042;28;91755;-76
2022/10/26 11:45:56;;;;;;;7.03;2.88;;;20.20;99.90;;;;;;5015175;28;93367;-76
2022/10/26 11:48:32;;;;;;;4.68;2.80;;;20.20;99.90;;;;;;5014837;28;94441;-76
2022/10/26 11:51:00;;;;;;;4.60;3.03;;;20.30;99.90;;;;;;5015704;28;95765;-76
2022/10/26 11:53:36;;;;;;;4.45;2.75;;;20.30;99.90;;;;;;5016194;28;92434;-76
2022/10/26 11:56:10;;;;;;;4.07;3.13;;;20.30;99.90;;;;;;5016257;28;93299;-76
2022/10/26 11:58:38;;;;;;;5.05;3.08;;;20.40;99.90;;;;;;5016385;28;93687;-76
2022/10/26 12:01:12;;;;;;;5.00;3.38;;;20.30;99.90;;;;;;5016075;28;92370;-76
2022/10/26 12:03:49;;;;;;;5.47;2.63;;;20.40;99.90;;;;;;5016598;28;92943;-76
2022/10/26 12:06:22;;;;;;;3.20;2.70;;;20.40;99.90;;;;;;5014502;28;94637;-76
2022/10/26 12:08:59;;;;;;;5.05;3.20;;;20.40;99.90;;;;;;5016568;28;91803;-76
2022/10/26 12:11:44;;;;;;;5.43;3.10;;;20.50;99.90;;;;;;5016241;28;92480;-76
2022/10/26 12:14:38;;;;;;;3.83;2.70;;;20.60;99.90;;;;;;5016037;28;92394;-76
2022/10/26 12:17:31;;;;;;;8.20;3.25;;;20.60;99.90;;;;;;5013184;28;96643;-76
2022/10/26 12:20:33;;;;;;;4.60;3.70;;;20.50;99.90;;;;;;4997834;28;97939;-76
2022/10/26 12:23:03;;;;;;;5.50;2.67;;;20.50;99.90;;;;;;5004545;28;92939;-76
2022/10/26 12:25:30;;;;;;;4.72;2.97;;;20.50;99.90;;;;;;5014312;28;92492;-76
2022/10/26 12:27:59;;;;;;;3.63;2.58;;;20.60;99.90;;;;;;5015520;28;92914;-76
2022/10/26 12:30:30;;;;;;;6.97;2.92;;;20.60;99.90;;;;;;5015819;28;92919;-77
2022/10/26 12:33:27;;;;;;;7.97;3.28;;;20.70;99.90;;;;;;5014439;28;92467;-76
2022/10/26 12:35:54;;;;;;;7.72;3.22;;;20.70;99.90;;;;;;5016481;28;92200;-77
2022/10/26 12:38:24;;;;;;;7.53;3.20;;;20.50;99.90;;;;;;5014007;28;96128;-76
2022/10/26 12:41:05;;;;;;;5.45;3.75;;;20.60;99.90;;;;;;5015582;28;92465;-76
2022/10/26 12:43:33;;;;;;;5.85;3.30;;;20.70;99.90;;;;;;4996144;28;94968;-76
2022/10/26 12:46:12;;;;;;;6.95;3.45;;;20.70;99.90;;;;;;5015603;28;92450;-76
2022/10/26 12:48:46;;;;;;;6.18;3.47;;;20.80;99.90;;;;;;5015724;28;93278;-76
2022/10/26 12:51:25;;;;;;;6.43;3.42;;;21.00;99.90;;;;;;5030747;28;92838;-76
2022/10/26 12:54:13;;;;;;;4.80;3.42;;;21.30;99.90;;;;;;5015830;28;92408;-76
2022/10/26 12:56:49;;;;;;;4.88;3.20;;;21.40;99.90;;;;;;5015679;28;92952;-76
2022/10/26 12:59:21;;;;;;;6.63;2.90;;;21.40;99.90;;;;;;5015363;28;93803;-76
2022/10/26 13:01:53;;;;;;;11.30;4.25;;;21.40;99.90;;;;;;5014285;28;95632;-76
2022/10/26 13:04:35;;;;;;;6.53;3.80;;;21.40;99.90;;;;;;5015517;28;92599;-76
2022/10/26 13:07:24;;;;;;;5.32;3.20;;;21.40;99.90;;;;;;5013950;28;92437;-76